sensor_id;sensor_type;location;lat;lon;timestamp;temperature;humidity
4356;DHT22;64374;51.482;7.408;2022-11-20T00:01:41;5.70;99.90
4356;DHT22;64374;51.482;7.408;2022-11-20T00:04:11;5.80;99.90
4356;DHT22;64374;51.482;7.408;2022-11-20T00:06:39;5.90;99.90
4356;DHT22;64374;51.482;7.408;2022-11-20T00:09:10;5.90;99.90
4356;DHT22;64374;51.482;7.408;2022-11-20T00:11:43;5.90;99.90
4356;DHT22;64374;51.482;7.408;2022-11-20T00:14:12;5.70;99.90
4356;DHT22;64374;51.482;7.408;2022-11-20T00:16:43;5.90;99.90
4356;DHT22;64374;51.482;7.408;2022-11-20T00:19:13;5.90;99.90
4356;DHT22;64374;51.482;7.408;2022-11-20T00:21:42;5.90;99.90
4356;DHT22;64374;51.482;7.408;2022-11-20T00:24:10;6.00;99.90
4356;DHT22;64374;51.482;7.408;2022-11-20T00:26:41;6.00;99.90
4356;DHT22;64374;51.482;7.408;2022-11-20T00:29:13;6.10;99.90
4356;DHT22;64374;51.482;7.408;2022-11-20T00:31:42;6.00;99.90
4356;DHT22;64374;51.482;7.408;2022-11-20T00:34:13;5.70;99.90
4356;DHT22;64374;51.482;7.408;2022-11-20T00:36:43;5.90;99.90
4356;DHT22;64374;51.482;7.408;2022-11-20T00:39:12;5.90;99.90
4356;DHT22;64374;51.482;7.408;2022-11-20T00:41:40;5.90;99.90
4356;DHT22;64374;51.482;7.408;2022-11-20T00:44:24;5.80;99.90
4356;DHT22;64374;51.482;7.408;2022-11-20T00:46:53;5.80;99.90
4356;DHT22;64374;51.482;7.408;2022-11-20T00:49:22;5.90;99.90
4356;DHT22;64374;51.482;7.408;2022-11-20T00:51:50;5.60;99.90
4356;DHT22;64374;51.482;7.408;2022-11-20T00:54:19;5.80;99.90
4356;DHT22;64374;51.482;7.408;2022-11-20T00:56:47;6.00;99.90
4356;DHT22;64374;51.482;7.408;2022-11-20T00:59:15;6.10;99.90
4356;DHT22;64374;51.482;7.408;2022-11-20T01:01:53;5.90;99.90
4356;DHT22;64374;51.482;7.408;2022-11-20T01:04:22;5.80;99.90
4356;DHT22;64374;51.482;7.408;2022-11-20T01:06:50;6.00;99.90
4356;DHT22;64374;51.482;7.408;2022-11-20T01:09:19;6.20;99.90
4356;DHT22;64374;51.482;7.408;2022-11-20T01:11:48;6.20;99.90
4356;DHT22;64374;51.482;7.408;2022-11-20T01:14:19;6.10;99.90
4356;DHT22;64374;51.482;7.408;2022-11-20T01:16:49;5.80;99.90
4356;DHT22;64374;51.482;7.408;2022-11-20T01:19:23;5.90;99.90
4356;DHT22;64374;51.482;7.408;2022-11-20T01:21:53;6.00;99.90
4356;DHT22;64374;51.482;7.408;2022-11-20T01:24:22;6.10;99.90
4356;DHT22;64374;51.482;7.408;2022-11-20T01:26:51;5.90;99.90
4356;DHT22;64374;51.482;7.408;2022-11-20T01:29:23;5.90;99.90
4356;DHT22;64374;51.482;7.408;2022-11-20T01:31:52;6.00;99.90
4356;DHT22;64374;51.482;7.408;2022-11-20T01:34:22;6.00;99.90
4356;DHT22;64374;51.482;7.408;2022-11-20T01:36:54;6.00;99.90
4356;DHT22;64374;51.482;7.408;2022-11-20T01:39:24;5.90;99.90
4356;DHT22;64374;51.482;7.408;2022-11-20T01:41:55;5.90;99.90
4356;DHT22;64374;51.482;7.408;2022-11-20T01:44:53;5.90;99.90
4356;DHT22;64374;51.482;7.408;2022-11-20T01:47:27;6.10;99.90
4356;DHT22;64374;51.482;7.408;2022-11-20T01:50:03;6.20;99.90
4356;DHT22;64374;51.482;7.408;2022-11-20T01:52:39;6.20;99.90
4356;DHT22;64374;51.482;7.408;2022-11-20T01:55:11;6.40;99.90
4356;DHT22;64374;51.482;7.408;2022-11-20T01:57:43;6.60;99.90
4356;DHT22;64374;51.482;7.408;2022-11-20T02:00:16;6.60;99.90
4356;DHT22;64374;51.482;7.408;2022-11-20T02:02:48;6.40;99.90
4356;DHT22;64374;51.482;7.408;2022-11-20T02:05:23;6.20;99.90
4356;DHT22;64374;51.482;7.408;2022-11-20T02:07:52;6.30;99.90
4356;DHT22;64374;51.482;7.408;2022-11-20T02:10:22;6.30;99.90
4356;DHT22;64374;51.482;7.408;2022-11-20T02:12:51;6.30;99.90
4356;DHT22;64374;51.482;7.408;2022-11-20T02:15:37;6.40;99.90
4356;DHT22;64374;51.482;7.408;2022-11-20T02:18:06;6.40;99.90
4356;DHT22;64374;51.482;7.408;2022-11-20T02:20:36;6.40;99.90
4356;DHT22;64374;51.482;7.408;2022-11-20T02:23:10;6.20;99.90
4356;DHT22;64374;51.482;7.408;2022-11-20T02:25:41;6.30;99.90
4356;DHT22;64374;51.482;7.408;2022-11-20T02:28:11;6.40;99.90
4356;DHT22;64374;51.482;7.408;2022-11-20T02:30:39;6.60;99.90
4356;DHT22;64374;51.482;7.408;2022-11-20T02:33:10;6.60;99.90
4356;DHT22;64374;51.482;7.408;2022-11-20T02:35:44;6.60;99.90
4356;DHT22;64374;51.482;7.408;2022-11-20T02:38:15;6.70;99.90
4356;DHT22;64374;51.482;7.408;2022-11-20T02:40:45;6.70;99.90
4356;DHT22;64374;51.482;7.408;2022-11-20T02:43:26;6.70;99.90
4356;DHT22;64374;51.482;7.408;2022-11-20T02:45:54;6.80;99.90
4356;DHT22;64374;51.482;7.408;2022-11-20T02:48:23;6.70;99.90
4356;DHT22;64374;51.482;7.408;2022-11-20T02:50:57;6.80;99.90
4356;DHT22;64374;51.482;7.408;2022-11-20T02:53:25;6.90;99.90
4356;DHT22;64374;51.482;7.408;2022-11-20T02:55:55;6.80;99.90
4356;DHT22;64374;51.482;7.408;2022-11-20T02:58:24;6.60;99.90
4356;DHT22;64374;51.482;7.408;2022-11-20T03:00:52;6.50;99.90
4356;DHT22;64374;51.482;7.408;2022-11-20T03:03:23;6.70;99.90
4356;DHT22;64374;51.482;7.408;2022-11-20T03:05:51;6.90;99.90
4356;DHT22;64374;51.482;7.408;2022-11-20T03:08:22;6.70;99.90
4356;DHT22;64374;51.482;7.408;2022-11-20T03:10:51;6.70;99.90
4356;DHT22;64374;51.482;7.408;2022-11-20T03:13:21;6.80;99.90
4356;DHT22;64374;51.482;7.408;2022-11-20T03:15:49;7.00;99.90
4356;DHT22;64374;51.482;7.408;2022-11-20T03:18:18;7.00;99.90
4356;DHT22;64374;51.482;7.408;2022-11-20T03:20:46;7.00;99.90
4356;DHT22;64374;51.482;7.408;2022-11-20T03:23:14;7.00;99.90
4356;DHT22;64374;51.482;7.408;2022-11-20T03:25:45;7.10;99.90
4356;DHT22;64374;51.482;7.408;2022-11-20T03:28:31;6.90;99.90
4356;DHT22;64374;51.482;7.408;2022-11-20T03:31:05;6.70;99.90
4356;DHT22;64374;51.482;7.408;2022-11-20T03:33:34;6.80;99.90
4356;DHT22;64374;51.482;7.408;2022-11-20T03:36:03;6.90;99.90
4356;DHT22;64374;51.482;7.408;2022-11-20T03:38:34;7.00;99.90
4356;DHT22;64374;51.482;7.408;2022-11-20T03:41:05;7.00;99.90
4356;DHT22;64374;51.482;7.408;2022-11-20T03:43:37;7.00;99.90
4356;DHT22;64374;51.482;7.408;2022-11-20T03:46:06;6.90;99.90
4356;DHT22;64374;51.482;7.408;2022-11-20T03:48:34;7.00;99.90
4356;DHT22;64374;51.482;7.408;2022-11-20T03:51:08;6.90;99.90
4356;DHT22;64374;51.482;7.408;2022-11-20T03:53:37;6.70;99.90
4356;DHT22;64374;51.482;7.408;2022-11-20T03:56:06;6.80;99.90
4356;DHT22;64374;51.482;7.408;2022-11-20T03:58:37;6.90;99.90
4356;DHT22;64374;51.482;7.408;2022-11-20T04:01:09;6.90;99.90
4356;DHT22;64374;51.482;7.408;2022-11-20T04:03:38;6.90;99.90
4356;DHT22;64374;51.482;7.408;2022-11-20T04:06:09;6.90;99.90
4356;DHT22;64374;51.482;7.408;2022-11-20T04:08:38;6.90;99.90
4356;DHT22;64374;51.482;7.408;2022-11-20T04:11:14;6.90;99.90
4356;DHT22;64374;51.482;7.408;2022-11-20T04:13:46;6.80;99.90
4356;DHT22;64374;51.482;7.408;2022-11-20T04:16:16;6.90;99.90
4356;DHT22;64374;51.482;7.408;2022-11-20T04:18:45;6.80;99.90
4356;DHT22;64374;51.482;7.408;2022-11-20T04:21:13;6.90;99.90
4356;DHT22;64374;51.482;7.408;2022-11-20T04:23:42;6.80;99.90
4356;DHT22;64374;51.482;7.408;2022-11-20T04:26:11;6.90;99.90
4356;DHT22;64374;51.482;7.408;2022-11-20T04:28:44;7.00;99.90
4356;DHT22;64374;51.482;7.408;2022-11-20T04:31:14;7.10;99.90
4356;DHT22;64374;51.482;7.408;2022-11-20T04:33:46;7.20;99.90
4356;DHT22;64374;51.482;7.408;2022-11-20T04:36:15;7.30;99.90
4356;DHT22;64374;51.482;7.408;2022-11-20T04:38:44;7.30;99.90
4356;DHT22;64374;51.482;7.408;2022-11-20T04:41:18;7.30;99.90
4356;DHT22;64374;51.482;7.408;2022-11-20T04:43:50;7.10;99.90
4356;DHT22;64374;51.482;7.408;2022-11-20T04:46:20;7.40;99.90
4356;DHT22;64374;51.482;7.408;2022-11-20T04:48:48;7.30;99.90
4356;DHT22;64374;51.482;7.408;2022-11-20T04:51:17;7.20;99.90
4356;DHT22;64374;51.482;7.408;2022-11-20T04:53:50;7.30;99.90
4356;DHT22;64374;51.482;7.408;2022-11-20T04:56:19;7.20;99.90
4356;DHT22;64374;51.482;7.408;2022-11-20T04:58:51;7.20;99.90
4356;DHT22;64374;51.482;7.408;2022-11-20T05:01:23;7.40;99.90
4356;DHT22;64374;51.482;7.408;2022-11-20T05:03:54;7.00;99.90
4356;DHT22;64374;51.482;7.408;2022-11-20T05:06:22;7.20;99.90
4356;DHT22;64374;51.482;7.408;2022-11-20T05:08:51;7.20;99.90
4356;DHT22;64374;51.482;7.408;2022-11-20T05:11:20;7.10;99.90
4356;DHT22;64374;51.482;7.408;2022-11-20T05:13:51;7.10;99.90
4356;DHT22;64374;51.482;7.408;2022-11-20T05:16:22;7.00;99.90
4356;DHT22;64374;51.482;7.408;2022-11-20T05:18:53;7.20;99.90
4356;DHT22;64374;51.482;7.408;2022-11-20T05:21:22;7.30;99.90
4356;DHT22;64374;51.482;7.408;2022-11-20T05:23:50;7.20;99.90
4356;DHT22;64374;51.482;7.408;2022-11-20T05:26:20;7.10;99.90
4356;DHT22;64374;51.482;7.408;2022-11-20T05:28:53;7.20;99.90
4356;DHT22;64374;51.482;7.408;2022-11-20T05:31:23;7.10;99.90
4356;DHT22;64374;51.482;7.408;2022-11-20T05:33:55;7.20;99.90
4356;DHT22;64374;51.482;7.408;2022-11-20T05:36:24;7.20;99.90
4356;DHT22;64374;51.482;7.408;2022-11-20T05:38:53;7.00;99.90
4356;DHT22;64374;51.482;7.408;2022-11-20T05:41:28;7.30;99.90
4356;DHT22;64374;51.482;7.408;2022-11-20T05:43:58;7.00;99.90
4356;DHT22;64374;51.482;7.408;2022-11-20T05:46:27;6.90;99.90
4356;DHT22;64374;51.482;7.408;2022-11-20T05:48:58;6.90;99.90
4356;DHT22;64374;51.482;7.408;2022-11-20T05:51:27;7.10;99.90
4356;DHT22;64374;51.482;7.408;2022-11-20T05:54:02;7.10;99.90
4356;DHT22;64374;51.482;7.408;2022-11-20T05:56:32;6.90;99.90
4356;DHT22;64374;51.482;7.408;2022-11-20T05:59:02;7.10;99.90
4356;DHT22;64374;51.482;7.408;2022-11-20T06:01:31;7.10;99.90
4356;DHT22;64374;51.482;7.408;2022-11-20T06:03:59;7.20;99.90
4356;DHT22;64374;51.482;7.408;2022-11-20T06:06:28;7.00;99.90
4356;DHT22;64374;51.482;7.408;2022-11-20T06:08:57;6.90;99.90
4356;DHT22;64374;51.482;7.408;2022-11-20T06:11:28;6.90;99.90
4356;DHT22;64374;51.482;7.408;2022-11-20T06:13:57;7.00;99.90
4356;DHT22;64374;51.482;7.408;2022-11-20T06:16:29;7.10;99.90
4356;DHT22;64374;51.482;7.408;2022-11-20T06:18:57;6.90;99.90
4356;DHT22;64374;51.482;7.408;2022-11-20T06:21:33;6.80;99.90
4356;DHT22;64374;51.482;7.408;2022-11-20T06:24:01;6.70;99.90
4356;DHT22;64374;51.482;7.408;2022-11-20T06:26:30;6.80;99.90
4356;DHT22;64374;51.482;7.408;2022-11-20T06:28:58;6.80;99.90
4356;DHT22;64374;51.482;7.408;2022-11-20T06:31:28;6.80;99.90
4356;DHT22;64374;51.482;7.408;2022-11-20T06:33:59;6.80;99.90
4356;DHT22;64374;51.482;7.408;2022-11-20T06:36:28;6.80;99.90
4356;DHT22;64374;51.482;7.408;2022-11-20T06:38:56;6.90;99.90
4356;DHT22;64374;51.482;7.408;2022-11-20T06:41:24;6.60;99.90
4356;DHT22;64374;51.482;7.408;2022-11-20T06:43:53;6.60;99.90
4356;DHT22;64374;51.482;7.408;2022-11-20T06:46:22;6.70;99.90
4356;DHT22;64374;51.482;7.408;2022-11-20T06:48:51;6.80;99.90
4356;DHT22;64374;51.482;7.408;2022-11-20T06:51:20;6.80;99.90
4356;DHT22;64374;51.482;7.408;2022-11-20T06:53:48;6.90;99.90
4356;DHT22;64374;51.482;7.408;2022-11-20T06:56:16;6.80;99.90
4356;DHT22;64374;51.482;7.408;2022-11-20T06:58:44;6.70;99.90
4356;DHT22;64374;51.482;7.408;2022-11-20T07:01:14;6.60;99.90
4356;DHT22;64374;51.482;7.408;2022-11-20T07:03:43;6.70;99.90
4356;DHT22;64374;51.482;7.408;2022-11-20T07:06:18;6.60;99.90
4356;DHT22;64374;51.482;7.408;2022-11-20T07:08:47;6.10;99.90
4356;DHT22;64374;51.482;7.408;2022-11-20T07:11:15;6.00;99.90
4356;DHT22;64374;51.482;7.408;2022-11-20T07:13:43;6.10;99.90
4356;DHT22;64374;51.482;7.408;2022-11-20T07:16:12;6.10;99.90
4356;DHT22;64374;51.482;7.408;2022-11-20T07:18:40;6.30;99.90
4356;DHT22;64374;51.482;7.408;2022-11-20T07:21:20;6.40;99.90
4356;DHT22;64374;51.482;7.408;2022-11-20T07:23:48;6.50;99.90
4356;DHT22;64374;51.482;7.408;2022-11-20T07:26:19;6.40;99.90
4356;DHT22;64374;51.482;7.408;2022-11-20T07:28:47;6.60;99.90
4356;DHT22;64374;51.482;7.408;2022-11-20T07:31:19;6.70;99.90
4356;DHT22;64374;51.482;7.408;2022-11-20T07:33:47;6.30;99.90
4356;DHT22;64374;51.482;7.408;2022-11-20T07:36:20;6.30;99.90
4356;DHT22;64374;51.482;7.408;2022-11-20T07:38:48;6.10;99.90
4356;DHT22;64374;51.482;7.408;2022-11-20T07:41:17;6.10;99.90
4356;DHT22;64374;51.482;7.408;2022-11-20T07:43:45;6.10;99.90
4356;DHT22;64374;51.482;7.408;2022-11-20T07:46:14;6.10;99.90
4356;DHT22;64374;51.482;7.408;2022-11-20T07:48:43;6.00;99.90
4356;DHT22;64374;51.482;7.408;2022-11-20T07:51:11;6.10;99.90
4356;DHT22;64374;51.482;7.408;2022-11-20T07:53:42;6.30;99.90
4356;DHT22;64374;51.482;7.408;2022-11-20T07:56:10;6.30;99.90
4356;DHT22;64374;51.482;7.408;2022-11-20T07:58:40;6.20;99.90
4356;DHT22;64374;51.482;7.408;2022-11-20T08:01:11;6.30;99.90
4356;DHT22;64374;51.482;7.408;2022-11-20T08:03:40;6.40;99.90
4356;DHT22;64374;51.482;7.408;2022-11-20T08:06:10;6.60;99.90
4356;DHT22;64374;51.482;7.408;2022-11-20T08:08:43;6.70;99.90
4356;DHT22;64374;51.482;7.408;2022-11-20T08:11:11;6.50;99.90
4356;DHT22;64374;51.482;7.408;2022-11-20T08:14:01;6.70;99.90
4356;DHT22;64374;51.482;7.408;2022-11-20T08:16:41;6.70;99.90
4356;DHT22;64374;51.482;7.408;2022-11-20T08:19:11;6.90;99.90
4356;DHT22;64374;51.482;7.408;2022-11-20T08:21:41;6.80;99.90
4356;DHT22;64374;51.482;7.408;2022-11-20T08:24:13;7.00;99.90
4356;DHT22;64374;51.482;7.408;2022-11-20T08:26:41;7.20;99.90
4356;DHT22;64374;51.482;7.408;2022-11-20T08:29:09;7.00;99.90
4356;DHT22;64374;51.482;7.408;2022-11-20T08:31:38;6.90;99.90
4356;DHT22;64374;51.482;7.408;2022-11-20T08:34:06;6.90;99.90
4356;DHT22;64374;51.482;7.408;2022-11-20T08:36:37;7.00;99.90
4356;DHT22;64374;51.482;7.408;2022-11-20T08:39:06;7.10;99.90
4356;DHT22;64374;51.482;7.408;2022-11-20T08:41:38;7.10;99.90
4356;DHT22;64374;51.482;7.408;2022-11-20T08:44:07;7.10;99.90
4356;DHT22;64374;51.482;7.408;2022-11-20T08:46:36;7.00;99.90
4356;DHT22;64374;51.482;7.408;2022-11-20T08:49:07;7.20;99.90
4356;DHT22;64374;51.482;7.408;2022-11-20T08:51:36;7.20;99.90
4356;DHT22;64374;51.482;7.408;2022-11-20T08:54:07;7.10;99.90
4356;DHT22;64374;51.482;7.408;2022-11-20T08:56:35;7.20;99.90
4356;DHT22;64374;51.482;7.408;2022-11-20T08:59:08;7.10;99.90
4356;DHT22;64374;51.482;7.408;2022-11-20T09:01:56;7.20;99.90
4356;DHT22;64374;51.482;7.408;2022-11-20T09:04:25;6.80;99.90
4356;DHT22;64374;51.482;7.408;2022-11-20T09:06:54;6.80;99.90
4356;DHT22;64374;51.482;7.408;2022-11-20T09:09:22;6.60;99.90
4356;DHT22;64374;51.482;7.408;2022-11-20T09:11:51;6.50;99.90
4356;DHT22;64374;51.482;7.408;2022-11-20T09:14:21;6.60;99.90
4356;DHT22;64374;51.482;7.408;2022-11-20T09:16:53;6.80;99.90
4356;DHT22;64374;51.482;7.408;2022-11-20T09:19:24;6.90;99.90
4356;DHT22;64374;51.482;7.408;2022-11-20T09:22:09;6.80;99.90
4356;DHT22;64374;51.482;7.408;2022-11-20T09:24:38;7.00;99.90
4356;DHT22;64374;51.482;7.408;2022-11-20T09:27:06;7.20;99.90
4356;DHT22;64374;51.482;7.408;2022-11-20T09:29:35;7.30;99.90
4356;DHT22;64374;51.482;7.408;2022-11-20T09:32:06;7.40;99.90
4356;DHT22;64374;51.482;7.408;2022-11-20T09:34:34;7.30;99.90
4356;DHT22;64374;51.482;7.408;2022-11-20T09:37:03;7.50;99.90
4356;DHT22;64374;51.482;7.408;2022-11-20T09:39:34;7.60;99.90
4356;DHT22;64374;51.482;7.408;2022-11-20T09:42:16;7.50;99.90
4356;DHT22;64374;51.482;7.408;2022-11-20T09:45:02;7.60;99.90
4356;DHT22;64374;51.482;7.408;2022-11-20T09:47:43;7.80;99.90
4356;DHT22;64374;51.482;7.408;2022-11-20T09:50:25;7.40;99.90
4356;DHT22;64374;51.482;7.408;2022-11-20T09:53:08;7.20;99.90
4356;DHT22;64374;51.482;7.408;2022-11-20T09:55:39;7.10;99.90
4356;DHT22;64374;51.482;7.408;2022-11-20T09:58:15;7.30;99.90
4356;DHT22;64374;51.482;7.408;2022-11-20T10:00:46;7.30;99.90
4356;DHT22;64374;51.482;7.408;2022-11-20T10:03:19;7.40;99.90
4356;DHT22;64374;51.482;7.408;2022-11-20T10:05:54;7.50;99.90
4356;DHT22;64374;51.482;7.408;2022-11-20T10:08:27;7.30;99.90
4356;DHT22;64374;51.482;7.408;2022-11-20T10:11:04;7.30;99.90
4356;DHT22;64374;51.482;7.408;2022-11-20T10:13:42;7.10;99.90
4356;DHT22;64374;51.482;7.408;2022-11-20T10:16:26;7.20;99.90
4356;DHT22;64374;51.482;7.408;2022-11-20T10:21:59;7.30;99.90
4356;DHT22;64374;51.482;7.408;2022-11-20T10:24:51;7.40;99.90
4356;DHT22;64374;51.482;7.408;2022-11-20T10:27:47;7.50;99.90
4356;DHT22;64374;51.482;7.408;2022-11-20T10:30:18;7.30;99.90
4356;DHT22;64374;51.482;7.408;2022-11-20T10:32:54;7.10;99.90
4356;DHT22;64374;51.482;7.408;2022-11-20T10:35:28;7.00;99.90
4356;DHT22;64374;51.482;7.408;2022-11-20T10:38:01;7.10;99.90
4356;DHT22;64374;51.482;7.408;2022-11-20T10:40:36;7.00;99.90
4356;DHT22;64374;51.482;7.408;2022-11-20T10:43:10;7.20;99.90
4356;DHT22;64374;51.482;7.408;2022-11-20T10:45:48;7.50;99.90
4356;DHT22;64374;51.482;7.408;2022-11-20T10:48:24;7.70;99.90
4356;DHT22;64374;51.482;7.408;2022-11-20T10:51:08;7.80;99.90
4356;DHT22;64374;51.482;7.408;2022-11-20T10:53:51;7.50;99.90
4356;DHT22;64374;51.482;7.408;2022-11-20T10:56:27;7.10;99.90
4356;DHT22;64374;51.482;7.408;2022-11-20T10:59:10;7.20;99.90
4356;DHT22;64374;51.482;7.408;2022-11-20T11:01:41;7.40;99.90
4356;DHT22;64374;51.482;7.408;2022-11-20T11:04:23;7.40;99.90
4356;DHT22;64374;51.482;7.408;2022-11-20T11:06:58;7.40;99.90
4356;DHT22;64374;51.482;7.408;2022-11-20T11:09:32;7.20;99.90
4356;DHT22;64374;51.482;7.408;2022-11-20T11:12:01;7.30;99.90
4356;DHT22;64374;51.482;7.408;2022-11-20T11:14:42;7.40;99.90
4356;DHT22;64374;51.482;7.408;2022-11-20T11:17:23;7.50;99.90
4356;DHT22;64374;51.482;7.408;2022-11-20T11:20:06;7.70;99.90
4356;DHT22;64374;51.482;7.408;2022-11-20T11:22:44;7.80;99.90
4356;DHT22;64374;51.482;7.408;2022-11-20T11:25:27;7.80;99.90
4356;DHT22;64374;51.482;7.408;2022-11-20T11:27:58;8.00;99.90
4356;DHT22;64374;51.482;7.408;2022-11-20T11:30:29;7.90;99.90
4356;DHT22;64374;51.482;7.408;2022-11-20T11:33:04;7.80;99.90
4356;DHT22;64374;51.482;7.408;2022-11-20T11:35:43;7.80;99.90
4356;DHT22;64374;51.482;7.408;2022-11-20T11:38:21;8.10;99.90
4356;DHT22;64374;51.482;7.408;2022-11-20T11:40:49;8.30;99.90
4356;DHT22;64374;51.482;7.408;2022-11-20T11:43:24;8.60;99.90
4356;DHT22;64374;51.482;7.408;2022-11-20T11:46:30;8.50;99.90
4356;DHT22;64374;51.482;7.408;2022-11-20T11:49:01;8.70;99.90
4356;DHT22;64374;51.482;7.408;2022-11-20T11:51:36;8.70;99.90
4356;DHT22;64374;51.482;7.408;2022-11-20T11:54:16;9.00;99.90
4356;DHT22;64374;51.482;7.408;2022-11-20T11:56:47;8.80;99.90
4356;DHT22;64374;51.482;7.408;2022-11-20T11:59:25;9.10;99.90
4356;DHT22;64374;51.482;7.408;2022-11-20T12:01:57;9.10;99.90
4356;DHT22;64374;51.482;7.408;2022-11-20T12:04:43;9.20;99.90
4356;DHT22;64374;51.482;7.408;2022-11-20T12:07:19;9.30;99.90
4356;DHT22;64374;51.482;7.408;2022-11-20T12:10:15;9.30;99.90
4356;DHT22;64374;51.482;7.408;2022-11-20T12:12:49;9.30;99.90
4356;DHT22;64374;51.482;7.408;2022-11-20T12:15:28;9.50;99.90
4356;DHT22;64374;51.482;7.408;2022-11-20T12:17:57;9.50;99.90
4356;DHT22;64374;51.482;7.408;2022-11-20T12:20:29;9.80;99.90
4356;DHT22;64374;51.482;7.408;2022-11-20T12:23:09;10.00;99.90
4356;DHT22;64374;51.482;7.408;2022-11-20T12:25:52;10.10;99.90
4356;DHT22;64374;51.482;7.408;2022-11-20T12:28:31;10.10;99.90
4356;DHT22;64374;51.482;7.408;2022-11-20T12:31:17;10.10;99.90
4356;DHT22;64374;51.482;7.408;2022-11-20T12:33:58;9.80;99.90
4356;DHT22;64374;51.482;7.408;2022-11-20T12:36:38;10.00;99.90
4356;DHT22;64374;51.482;7.408;2022-11-20T12:39:33;10.10;99.90
4356;DHT22;64374;51.482;7.408;2022-11-20T12:42:14;10.10;99.90
4356;DHT22;64374;51.482;7.408;2022-11-20T12:45:21;10.10;99.90
4356;DHT22;64374;51.482;7.408;2022-11-20T12:48:12;9.80;99.90
4356;DHT22;64374;51.482;7.408;2022-11-20T12:50:52;9.80;99.90
4356;DHT22;64374;51.482;7.408;2022-11-20T12:53:47;9.70;99.90
4356;DHT22;64374;51.482;7.408;2022-11-20T12:56:28;9.40;99.90
4356;DHT22;64374;51.482;7.408;2022-11-20T12:59:10;9.50;99.90
4356;DHT22;64374;51.482;7.408;2022-11-20T13:01:47;9.50;99.90
4356;DHT22;64374;51.482;7.408;2022-11-20T13:04:35;9.50;99.90
4356;DHT22;64374;51.482;7.408;2022-11-20T13:07:11;9.30;99.90
4356;DHT22;64374;51.482;7.408;2022-11-20T13:09:45;9.30;99.90
4356;DHT22;64374;51.482;7.408;2022-11-20T13:12:19;9.30;99.90
4356;DHT22;64374;51.482;7.408;2022-11-20T13:14:55;9.30;99.90
4356;DHT22;64374;51.482;7.408;2022-11-20T13:17:33;9.40;99.90
4356;DHT22;64374;51.482;7.408;2022-11-20T13:20:06;9.30;99.90
4356;DHT22;64374;51.482;7.408;2022-11-20T13:22:46;9.30;99.90
4356;DHT22;64374;51.482;7.408;2022-11-20T13:25:27;9.20;99.90
4356;DHT22;64374;51.482;7.408;2022-11-20T13:27:59;9.30;99.90
4356;DHT22;64374;51.482;7.408;2022-11-20T13:30:29;9.20;99.90
4356;DHT22;64374;51.482;7.408;2022-11-20T13:33:06;9.30;99.90
4356;DHT22;64374;51.482;7.408;2022-11-20T13:35:36;9.20;99.90
4356;DHT22;64374;51.482;7.408;2022-11-20T13:38:07;9.30;99.90
4356;DHT22;64374;51.482;7.408;2022-11-20T13:40:51;9.20;99.90
4356;DHT22;64374;51.482;7.408;2022-11-20T13:43:33;9.30;99.90
4356;DHT22;64374;51.482;7.408;2022-11-20T13:46:04;9.30;99.90
4356;DHT22;64374;51.482;7.408;2022-11-20T13:48:42;9.20;99.90
4356;DHT22;64374;51.482;7.408;2022-11-20T13:51:20;9.30;99.90
4356;DHT22;64374;51.482;7.408;2022-11-20T13:54:14;9.30;99.90
4356;DHT22;64374;51.482;7.408;2022-11-20T13:56:59;9.30;99.90
4356;DHT22;64374;51.482;7.408;2022-11-20T13:59:49;9.30;99.90
4356;DHT22;64374;51.482;7.408;2022-11-20T14:02:24;9.20;99.90
4356;DHT22;64374;51.482;7.408;2022-11-20T14:04:57;9.40;99.90
4356;DHT22;64374;51.482;7.408;2022-11-20T14:07:32;9.30;99.90
4356;DHT22;64374;51.482;7.408;2022-11-20T14:10:03;9.10;99.90
4356;DHT22;64374;51.482;7.408;2022-11-20T14:12:33;9.10;99.90
4356;DHT22;64374;51.482;7.408;2022-11-20T14:15:22;9.20;99.90
4356;DHT22;64374;51.482;7.408;2022-11-20T14:17:52;9.20;99.90
4356;DHT22;64374;51.482;7.408;2022-11-20T14:20:23;9.30;99.90
4356;DHT22;64374;51.482;7.408;2022-11-20T14:22:53;9.20;99.90
4356;DHT22;64374;51.482;7.408;2022-11-20T14:25:24;9.20;99.90
4356;DHT22;64374;51.482;7.408;2022-11-20T14:27:56;9.30;99.90
4356;DHT22;64374;51.482;7.408;2022-11-20T14:30:28;9.30;99.90
4356;DHT22;64374;51.482;7.408;2022-11-20T14:33:02;9.30;99.90
4356;DHT22;64374;51.482;7.408;2022-11-20T14:35:33;9.30;99.90
4356;DHT22;64374;51.482;7.408;2022-11-20T14:38:03;9.20;99.90
4356;DHT22;64374;51.482;7.408;2022-11-20T14:40:33;9.30;99.90
4356;DHT22;64374;51.482;7.408;2022-11-20T14:43:17;9.30;99.90
4356;DHT22;64374;51.482;7.408;2022-11-20T14:45:49;9.30;99.90
4356;DHT22;64374;51.482;7.408;2022-11-20T14:48:23;9.30;99.90
4356;DHT22;64374;51.482;7.408;2022-11-20T14:50:54;9.50;99.90
4356;DHT22;64374;51.482;7.408;2022-11-20T14:53:25;9.30;99.90
4356;DHT22;64374;51.482;7.408;2022-11-20T14:55:57;9.30;99.90
4356;DHT22;64374;51.482;7.408;2022-11-20T14:58:27;9.20;99.90
4356;DHT22;64374;51.482;7.408;2022-11-20T15:01:02;9.20;99.90
4356;DHT22;64374;51.482;7.408;2022-11-20T15:03:32;9.20;99.90
4356;DHT22;64374;51.482;7.408;2022-11-20T15:06:01;9.30;99.90
4356;DHT22;64374;51.482;7.408;2022-11-20T15:08:30;9.20;99.90
4356;DHT22;64374;51.482;7.408;2022-11-20T15:10:58;9.20;99.90
4356;DHT22;64374;51.482;7.408;2022-11-20T15:13:30;9.30;99.90
4356;DHT22;64374;51.482;7.408;2022-11-20T15:16:03;9.40;99.90
4356;DHT22;64374;51.482;7.408;2022-11-20T15:18:36;9.30;99.90
4356;DHT22;64374;51.482;7.408;2022-11-20T15:21:11;9.20;99.90
4356;DHT22;64374;51.482;7.408;2022-11-20T15:23:40;9.30;99.90
4356;DHT22;64374;51.482;7.408;2022-11-20T15:26:10;9.20;99.90
4356;DHT22;64374;51.482;7.408;2022-11-20T15:28:47;9.20;99.90
4356;DHT22;64374;51.482;7.408;2022-11-20T15:31:28;9.30;99.90
4356;DHT22;64374;51.482;7.408;2022-11-20T15:33:56;9.30;99.90
4356;DHT22;64374;51.482;7.408;2022-11-20T15:36:25;9.20;99.90
4356;DHT22;64374;51.482;7.408;2022-11-20T15:38:54;9.30;99.90
4356;DHT22;64374;51.482;7.408;2022-11-20T15:41:22;9.10;99.90
4356;DHT22;64374;51.482;7.408;2022-11-20T15:43:50;9.20;99.90
4356;DHT22;64374;51.482;7.408;2022-11-20T15:46:23;9.10;99.90
4356;DHT22;64374;51.482;7.408;2022-11-20T15:48:55;9.10;99.90
4356;DHT22;64374;51.482;7.408;2022-11-20T15:51:27;9.10;99.90
4356;DHT22;64374;51.482;7.408;2022-11-20T15:53:56;9.20;99.90
4356;DHT22;64374;51.482;7.408;2022-11-20T15:56:24;9.20;99.90
4356;DHT22;64374;51.482;7.408;2022-11-20T15:59:00;9.30;99.90
4356;DHT22;64374;51.482;7.408;2022-11-20T16:01:30;9.20;99.90
4356;DHT22;64374;51.482;7.408;2022-11-20T16:03:59;9.10;99.90
4356;DHT22;64374;51.482;7.408;2022-11-20T16:06:30;9.10;99.90
4356;DHT22;64374;51.482;7.408;2022-11-20T16:09:01;9.10;99.90
4356;DHT22;64374;51.482;7.408;2022-11-20T16:11:29;9.20;99.90
4356;DHT22;64374;51.482;7.408;2022-11-20T16:14:01;9.30;99.90
4356;DHT22;64374;51.482;7.408;2022-11-20T16:16:51;9.40;99.90
4356;DHT22;64374;51.482;7.408;2022-11-20T16:19:22;9.20;99.90
4356;DHT22;64374;51.482;7.408;2022-11-20T16:21:50;9.40;99.90
4356;DHT22;64374;51.482;7.408;2022-11-20T16:24:20;9.30;99.90
4356;DHT22;64374;51.482;7.408;2022-11-20T16:26:49;9.40;99.90
4356;DHT22;64374;51.482;7.408;2022-11-20T16:29:17;9.30;99.90
4356;DHT22;64374;51.482;7.408;2022-11-20T16:31:45;9.30;99.90
4356;DHT22;64374;51.482;7.408;2022-11-20T16:34:16;9.30;99.90
4356;DHT22;64374;51.482;7.408;2022-11-20T16:36:45;9.20;99.90
4356;DHT22;64374;51.482;7.408;2022-11-20T16:39:17;9.10;99.90
4356;DHT22;64374;51.482;7.408;2022-11-20T16:41:52;9.20;99.90